Keene, NH

4:50 AM EDT on May 30, 2015 (GMT -0400)
Orange Municipal | | Change Station
CLOSE
Current Station
Airport
Location: Orange,
Elevation: 554 ft
Nearby Weather Stations

Elev 554 ft 42.57 °N, 72.29 °W | Updated 28 minutes ago

Clear
Clear
56 °F
Feels Like 56 °F
N
0
Wind Variable Wind from North

Today
High -- | Low -- °F
--% Chance of Precip.
Yesterday
High -- | Low -- °F
Precip. -- in
5:14 AM 8:19 PM
Waxing Gibbous, 89% visible
Pressure 30.19 in
Visibility 3.0 miles
Clouds Clear
Dew Point 55 °F
Humidity 97%
Rainfall 0.00 in
Snow Depth Not available.
UV 0 out of 12
Pollen 9.90 out of 12
Air Quality Not available.
Flu Activity Sporadic
SPECI KORE 300822Z AUTO 00000KT 3SM BR CLR 13/13 A3019 RMK AO2 T01330128

More Conditions Fewer Conditions

Pressure 30.19 in
Visibility 3.0 miles
Clouds Clear
Dew Point 55 °F
Humidity 97%
Rainfall 0.00 in
Snow Depth Not available.
UV 0 out of 12
Pollen 9.90 out of 12
Air Quality Not available.
Flu Activity Sporadic
SPECI KORE 300822Z AUTO 00000KT 3SM BR CLR 13/13 A3019 RMK AO2 T01330128

More Conditions Fewer Conditions

10-Day Weather Forecast

Almanac

Astronomy

May. 30, 2015 Rise Set
Actual Time
Civil Twilight
Nautical Twilight
Astronomical Twilight
Moon
Length of Visible Light
Length of Day
Tomorrow will be .
, % of the Moon is Illuminated

Today's Extremes

State Highs State Lows

Community

WunderPhotos

Upload Photos

1,825,472 photos uploaded!

WunderBlogs® & News

Nearby

Air Quality

  Air Quality AQ Index Pollutant
Not available.

Snow Depth

Station Depth Elevation

Earthquake Activity

City Distance Mag. Time & Date
Minimum magnitude displayed is 2.5.

Coastal Water Temperatures

Place Temperature

Stations

Nearby Weather Stations

Station Location Temp. Windchill Dew Point Humidity Wind Precip. Elev Updated Type